sensor_id;sensor_type;location;lat;lon;timestamp;P1;durP1;ratioP1;P2;durP2;ratioP2
55784;SDS011;41709;52.536;5.688;2023-02-28T00:00:49;8.43;;;1.83;;
55784;SDS011;41709;52.536;5.688;2023-02-28T00:03:14;5.22;;;1.88;;
55784;SDS011;41709;52.536;5.688;2023-02-28T00:05:40;6.70;;;1.55;;
55784;SDS011;41709;52.536;5.688;2023-02-28T00:08:06;5.18;;;1.85;;
55784;SDS011;41709;52.536;5.688;2023-02-28T00:10:32;7.88;;;1.95;;
55784;SDS011;41709;52.536;5.688;2023-02-28T00:13:05;6.45;;;1.85;;
55784;SDS011;41709;52.536;5.688;2023-02-28T00:15:31;5.20;;;2.10;;
55784;SDS011;41709;52.536;5.688;2023-02-28T00:17:58;7.15;;;1.98;;
55784;SDS011;41709;52.536;5.688;2023-02-28T00:20:23;4.05;;;1.90;;
55784;SDS011;41709;52.536;5.688;2023-02-28T00:22:51;9.07;;;1.85;;
55784;SDS011;41709;52.536;5.688;2023-02-28T00:25:19;5.82;;;1.80;;
55784;SDS011;41709;52.536;5.688;2023-02-28T00:27:47;8.75;;;1.83;;
55784;SDS011;41709;52.536;5.688;2023-02-28T00:30:20;5.18;;;1.83;;
55784;SDS011;41709;52.536;5.688;2023-02-28T00:32:47;6.38;;;2.00;;
55784;SDS011;41709;52.536;5.688;2023-02-28T00:35:14;4.53;;;1.60;;
55784;SDS011;41709;52.536;5.688;2023-02-28T00:37:39;5.35;;;1.77;;
55784;SDS011;41709;52.536;5.688;2023-02-28T00:40:05;4.75;;;2.00;;
55784;SDS011;41709;52.536;5.688;2023-02-28T00:42:32;6.00;;;2.00;;
55784;SDS011;41709;52.536;5.688;2023-02-28T00:44:58;3.17;;;1.70;;
55784;SDS011;41709;52.536;5.688;2023-02-28T00:47:23;5.57;;;2.00;;
55784;SDS011;41709;52.536;5.688;2023-02-28T00:49:49;4.05;;;1.48;;
55784;SDS011;41709;52.536;5.688;2023-02-28T00:52:14;5.65;;;2.00;;
55784;SDS011;41709;52.536;5.688;2023-02-28T00:54:40;8.27;;;2.10;;
55784;SDS011;41709;52.536;5.688;2023-02-28T00:57:05;5.03;;;1.88;;
55784;SDS011;41709;52.536;5.688;2023-02-28T00:59:31;5.20;;;2.05;;
55784;SDS011;41709;52.536;5.688;2023-02-28T01:01:57;6.22;;;2.35;;
55784;SDS011;41709;52.536;5.688;2023-02-28T01:04:22;5.43;;;1.77;;
55784;SDS011;41709;52.536;5.688;2023-02-28T01:06:48;8.70;;;1.70;;
55784;SDS011;41709;52.536;5.688;2023-02-28T01:09:13;14.43;;;2.65;;
55784;SDS011;41709;52.536;5.688;2023-02-28T01:11:39;7.93;;;2.20;;
55784;SDS011;41709;52.536;5.688;2023-02-28T01:14:06;4.05;;;1.60;;
55784;SDS011;41709;52.536;5.688;2023-02-28T01:16:32;5.22;;;1.92;;
55784;SDS011;41709;52.536;5.688;2023-02-28T01:18:57;6.13;;;2.20;;
55784;SDS011;41709;52.536;5.688;2023-02-28T01:21:23;5.93;;;2.03;;
55784;SDS011;41709;52.536;5.688;2023-02-28T01:23:49;5.90;;;2.15;;
55784;SDS011;41709;52.536;5.688;2023-02-28T01:26:16;6.18;;;2.03;;
55784;SDS011;41709;52.536;5.688;2023-02-28T01:28:43;3.70;;;1.80;;
55784;SDS011;41709;52.536;5.688;2023-02-28T01:31:09;6.68;;;1.90;;
55784;SDS011;41709;52.536;5.688;2023-02-28T01:33:35;9.60;;;2.08;;
55784;SDS011;41709;52.536;5.688;2023-02-28T01:36:03;4.95;;;1.88;;
55784;SDS011;41709;52.536;5.688;2023-02-28T01:38:34;4.38;;;1.88;;
55784;SDS011;41709;52.536;5.688;2023-02-28T01:41:00;12.45;;;2.53;;
55784;SDS011;41709;52.536;5.688;2023-02-28T01:43:29;7.68;;;2.33;;
55784;SDS011;41709;52.536;5.688;2023-02-28T01:45:57;6.72;;;2.60;;
55784;SDS011;41709;52.536;5.688;2023-02-28T01:48:31;12.10;;;2.50;;
55784;SDS011;41709;52.536;5.688;2023-02-28T01:51:01;10.15;;;1.77;;
55784;SDS011;41709;52.536;5.688;2023-02-28T01:53:36;5.53;;;2.08;;
55784;SDS011;41709;52.536;5.688;2023-02-28T01:56:07;6.82;;;1.83;;
55784;SDS011;41709;52.536;5.688;2023-02-28T01:58:35;6.57;;;2.05;;
55784;SDS011;41709;52.536;5.688;2023-02-28T02:01:02;4.80;;;1.88;;
55784;SDS011;41709;52.536;5.688;2023-02-28T02:03:28;5.43;;;2.22;;
55784;SDS011;41709;52.536;5.688;2023-02-28T02:05:55;7.20;;;2.38;;
55784;SDS011;41709;52.536;5.688;2023-02-28T02:08:24;5.00;;;1.80;;
55784;SDS011;41709;52.536;5.688;2023-02-28T02:10:56;6.55;;;1.88;;
55784;SDS011;41709;52.536;5.688;2023-02-28T02:13:37;4.15;;;2.10;;
55784;SDS011;41709;52.536;5.688;2023-02-28T02:27:37;8.25;;;2.03;;
55784;SDS011;41709;52.536;5.688;2023-02-28T02:30:27;6.28;;;2.03;;
55784;SDS011;41709;52.536;5.688;2023-02-28T02:36:23;6.90;;;2.15;;
55784;SDS011;41709;52.536;5.688;2023-02-28T02:41:25;10.10;;;2.10;;
55784;SDS011;41709;52.536;5.688;2023-02-28T02:46:49;5.53;;;2.10;;
55784;SDS011;41709;52.536;5.688;2023-02-28T02:49:20;5.43;;;1.85;;
55784;SDS011;41709;52.536;5.688;2023-02-28T02:51:49;5.38;;;2.08;;
55784;SDS011;41709;52.536;5.688;2023-02-28T02:54:17;6.32;;;2.25;;
55784;SDS011;41709;52.536;5.688;2023-02-28T02:56:48;6.18;;;2.30;;
55784;SDS011;41709;52.536;5.688;2023-02-28T02:59:16;4.90;;;1.85;;
55784;SDS011;41709;52.536;5.688;2023-02-28T03:01:46;5.32;;;2.42;;
55784;SDS011;41709;52.536;5.688;2023-02-28T03:04:22;5.53;;;2.53;;
55784;SDS011;41709;52.536;5.688;2023-02-28T03:06:50;7.90;;;2.70;;
55784;SDS011;41709;52.536;5.688;2023-02-28T03:09:20;6.07;;;2.65;;
55784;SDS011;41709;52.536;5.688;2023-02-28T03:11:46;5.95;;;2.53;;
55784;SDS011;41709;52.536;5.688;2023-02-28T03:16:50;11.45;;;2.97;;
55784;SDS011;41709;52.536;5.688;2023-02-28T03:19:47;6.25;;;2.33;;
55784;SDS011;41709;52.536;5.688;2023-02-28T03:22:32;7.50;;;2.78;;
55784;SDS011;41709;52.536;5.688;2023-02-28T03:27:42;8.50;;;2.65;;
55784;SDS011;41709;52.536;5.688;2023-02-28T03:30:31;8.35;;;2.60;;
55784;SDS011;41709;52.536;5.688;2023-02-28T03:33:12;6.22;;;2.90;;
55784;SDS011;41709;52.536;5.688;2023-02-28T03:35:58;5.00;;;2.75;;
55784;SDS011;41709;52.536;5.688;2023-02-28T03:38:35;7.07;;;3.28;;
55784;SDS011;41709;52.536;5.688;2023-02-28T03:41:16;5.25;;;2.80;;
55784;SDS011;41709;52.536;5.688;2023-02-28T03:43:50;5.00;;;2.67;;
55784;SDS011;41709;52.536;5.688;2023-02-28T03:46:23;5.20;;;2.80;;
55784;SDS011;41709;52.536;5.688;2023-02-28T03:49:16;6.05;;;2.75;;
55784;SDS011;41709;52.536;5.688;2023-02-28T03:51:42;5.70;;;2.92;;
55784;SDS011;41709;52.536;5.688;2023-02-28T03:54:15;7.05;;;3.20;;
55784;SDS011;41709;52.536;5.688;2023-02-28T03:56:54;6.50;;;3.20;;
55784;SDS011;41709;52.536;5.688;2023-02-28T03:59:43;7.20;;;2.78;;
55784;SDS011;41709;52.536;5.688;2023-02-28T04:02:12;4.85;;;2.63;;
55784;SDS011;41709;52.536;5.688;2023-02-28T04:04:38;4.65;;;3.00;;
55784;SDS011;41709;52.536;5.688;2023-02-28T04:07:09;7.95;;;2.80;;
55784;SDS011;41709;52.536;5.688;2023-02-28T04:09:36;9.25;;;3.33;;
55784;SDS011;41709;52.536;5.688;2023-02-28T04:12:02;7.05;;;3.17;;
55784;SDS011;41709;52.536;5.688;2023-02-28T04:14:28;3.72;;;3.13;;
55784;SDS011;41709;52.536;5.688;2023-02-28T04:16:54;6.93;;;3.10;;
55784;SDS011;41709;52.536;5.688;2023-02-28T04:19:19;5.88;;;3.90;;
55784;SDS011;41709;52.536;5.688;2023-02-28T04:21:54;8.50;;;4.00;;
55784;SDS011;41709;52.536;5.688;2023-02-28T04:24:21;6.85;;;4.40;;
55784;SDS011;41709;52.536;5.688;2023-02-28T04:26:49;10.32;;;4.50;;
55784;SDS011;41709;52.536;5.688;2023-02-28T04:29:20;6.68;;;4.45;;
55784;SDS011;41709;52.536;5.688;2023-02-28T04:31:50;8.13;;;4.30;;
55784;SDS011;41709;52.536;5.688;2023-02-28T04:34:18;13.20;;;4.93;;
55784;SDS011;41709;52.536;5.688;2023-02-28T04:36:44;9.80;;;4.95;;
55784;SDS011;41709;52.536;5.688;2023-02-28T04:39:10;8.88;;;5.20;;
55784;SDS011;41709;52.536;5.688;2023-02-28T04:41:36;12.23;;;6.07;;
55784;SDS011;41709;52.536;5.688;2023-02-28T04:44:02;10.57;;;6.10;;
55784;SDS011;41709;52.536;5.688;2023-02-28T04:46:28;11.55;;;6.68;;
55784;SDS011;41709;52.536;5.688;2023-02-28T04:48:53;13.02;;;7.18;;
55784;SDS011;41709;52.536;5.688;2023-02-28T04:51:19;13.15;;;7.53;;
55784;SDS011;41709;52.536;5.688;2023-02-28T04:53:45;12.25;;;7.38;;
55784;SDS011;41709;52.536;5.688;2023-02-28T04:56:13;13.85;;;8.35;;
55784;SDS011;41709;52.536;5.688;2023-02-28T04:58:39;12.35;;;8.15;;
55784;SDS011;41709;52.536;5.688;2023-02-28T05:01:07;12.68;;;8.13;;
55784;SDS011;41709;52.536;5.688;2023-02-28T05:03:50;12.73;;;7.97;;
55784;SDS011;41709;52.536;5.688;2023-02-28T05:06:17;14.77;;;8.45;;
55784;SDS011;41709;52.536;5.688;2023-02-28T05:08:45;15.57;;;8.45;;
55784;SDS011;41709;52.536;5.688;2023-02-28T05:11:24;13.23;;;8.85;;
55784;SDS011;41709;52.536;5.688;2023-02-28T05:13:52;14.70;;;9.27;;
55784;SDS011;41709;52.536;5.688;2023-02-28T05:16:19;16.83;;;9.82;;
55784;SDS011;41709;52.536;5.688;2023-02-28T05:18:45;12.52;;;7.75;;
55784;SDS011;41709;52.536;5.688;2023-02-28T05:21:53;11.07;;;7.30;;
55784;SDS011;41709;52.536;5.688;2023-02-28T05:24:01;13.98;;;6.03;;
55784;SDS011;41709;52.536;5.688;2023-02-28T05:26:29;7.50;;;5.28;;
55784;SDS011;41709;52.536;5.688;2023-02-28T05:28:56;8.10;;;5.57;;
55784;SDS011;41709;52.536;5.688;2023-02-28T05:31:22;8.23;;;5.38;;
55784;SDS011;41709;52.536;5.688;2023-02-28T05:33:48;8.25;;;4.53;;
55784;SDS011;41709;52.536;5.688;2023-02-28T05:36:14;6.90;;;5.15;;
55784;SDS011;41709;52.536;5.688;2023-02-28T05:38:39;8.60;;;4.63;;
55784;SDS011;41709;52.536;5.688;2023-02-28T05:41:08;7.22;;;4.55;;
55784;SDS011;41709;52.536;5.688;2023-02-28T05:43:35;7.18;;;3.90;;
55784;SDS011;41709;52.536;5.688;2023-02-28T05:46:05;5.07;;;3.70;;
55784;SDS011;41709;52.536;5.688;2023-02-28T05:48:33;7.50;;;3.97;;
55784;SDS011;41709;52.536;5.688;2023-02-28T05:51:00;8.25;;;3.65;;
55784;SDS011;41709;52.536;5.688;2023-02-28T05:53:25;9.43;;;3.90;;
55784;SDS011;41709;52.536;5.688;2023-02-28T05:55:51;8.77;;;4.25;;
55784;SDS011;41709;52.536;5.688;2023-02-28T05:58:17;5.25;;;3.17;;
55784;SDS011;41709;52.536;5.688;2023-02-28T06:00:42;6.15;;;3.00;;
55784;SDS011;41709;52.536;5.688;2023-02-28T06:03:08;6.60;;;2.60;;
55784;SDS011;41709;52.536;5.688;2023-02-28T06:05:33;4.65;;;2.92;;
55784;SDS011;41709;52.536;5.688;2023-02-28T06:07:59;3.67;;;2.55;;
55784;SDS011;41709;52.536;5.688;2023-02-28T06:10:24;4.90;;;3.13;;
55784;SDS011;41709;52.536;5.688;2023-02-28T06:12:50;9.75;;;3.10;;
55784;SDS011;41709;52.536;5.688;2023-02-28T06:15:16;5.65;;;2.90;;
55784;SDS011;41709;52.536;5.688;2023-02-28T06:17:42;3.85;;;2.20;;
55784;SDS011;41709;52.536;5.688;2023-02-28T06:20:09;6.13;;;2.92;;
55784;SDS011;41709;52.536;5.688;2023-02-28T06:22:37;6.47;;;2.60;;
55784;SDS011;41709;52.536;5.688;2023-02-28T06:25:04;5.25;;;2.30;;
55784;SDS011;41709;52.536;5.688;2023-02-28T06:27:32;5.05;;;2.97;;
55784;SDS011;41709;52.536;5.688;2023-02-28T06:29:58;4.03;;;2.70;;
55784;SDS011;41709;52.536;5.688;2023-02-28T06:32:24;9.15;;;2.90;;
55784;SDS011;41709;52.536;5.688;2023-02-28T06:34:49;4.53;;;2.90;;
55784;SDS011;41709;52.536;5.688;2023-02-28T06:37:15;5.63;;;2.53;;
55784;SDS011;41709;52.536;5.688;2023-02-28T06:39:41;5.72;;;3.05;;
55784;SDS011;41709;52.536;5.688;2023-02-28T06:42:07;5.18;;;2.60;;
55784;SDS011;41709;52.536;5.688;2023-02-28T06:44:32;4.72;;;2.70;;
55784;SDS011;41709;52.536;5.688;2023-02-28T06:46:59;5.35;;;2.67;;
55784;SDS011;41709;52.536;5.688;2023-02-28T06:49:27;6.88;;;2.33;;
55784;SDS011;41709;52.536;5.688;2023-02-28T06:51:53;3.85;;;2.30;;
55784;SDS011;41709;52.536;5.688;2023-02-28T06:54:19;3.30;;;2.10;;
55784;SDS011;41709;52.536;5.688;2023-02-28T06:56:45;5.50;;;2.08;;
55784;SDS011;41709;52.536;5.688;2023-02-28T06:59:11;3.00;;;2.22;;
55784;SDS011;41709;52.536;5.688;2023-02-28T07:01:37;3.83;;;2.47;;
55784;SDS011;41709;52.536;5.688;2023-02-28T07:04:04;5.18;;;2.60;;
55784;SDS011;41709;52.536;5.688;2023-02-28T07:06:31;4.60;;;2.40;;
55784;SDS011;41709;52.536;5.688;2023-02-28T07:08:56;4.65;;;2.42;;
55784;SDS011;41709;52.536;5.688;2023-02-28T07:11:23;4.60;;;2.40;;
55784;SDS011;41709;52.536;5.688;2023-02-28T07:13:51;5.10;;;2.88;;
55784;SDS011;41709;52.536;5.688;2023-02-28T07:16:20;4.55;;;2.45;;
55784;SDS011;41709;52.536;5.688;2023-02-28T07:18:46;4.28;;;2.40;;
55784;SDS011;41709;52.536;5.688;2023-02-28T07:21:12;4.25;;;3.00;;
55784;SDS011;41709;52.536;5.688;2023-02-28T07:23:38;6.88;;;2.95;;
55784;SDS011;41709;52.536;5.688;2023-02-28T07:26:10;3.80;;;2.75;;
55784;SDS011;41709;52.536;5.688;2023-02-28T07:28:39;3.50;;;2.65;;
55784;SDS011;41709;52.536;5.688;2023-02-28T07:31:07;4.72;;;3.00;;
55784;SDS011;41709;52.536;5.688;2023-02-28T07:33:33;5.60;;;2.63;;
55784;SDS011;41709;52.536;5.688;2023-02-28T07:36:02;5.25;;;3.03;;
55784;SDS011;41709;52.536;5.688;2023-02-28T07:38:29;3.30;;;2.22;;
55784;SDS011;41709;52.536;5.688;2023-02-28T07:40:55;4.03;;;2.58;;
55784;SDS011;41709;52.536;5.688;2023-02-28T07:43:21;5.97;;;2.90;;
55784;SDS011;41709;52.536;5.688;2023-02-28T07:45:46;5.03;;;2.53;;
55784;SDS011;41709;52.536;5.688;2023-02-28T07:48:12;4.88;;;2.90;;
55784;SDS011;41709;52.536;5.688;2023-02-28T07:50:37;6.38;;;3.20;;
55784;SDS011;41709;52.536;5.688;2023-02-28T07:53:03;3.58;;;2.50;;
55784;SDS011;41709;52.536;5.688;2023-02-28T07:55:29;3.05;;;2.13;;
55784;SDS011;41709;52.536;5.688;2023-02-28T07:57:56;4.65;;;2.83;;
55784;SDS011;41709;52.536;5.688;2023-02-28T08:00:22;5.80;;;2.55;;
55784;SDS011;41709;52.536;5.688;2023-02-28T08:02:48;5.70;;;2.75;;
55784;SDS011;41709;52.536;5.688;2023-02-28T08:05:13;4.53;;;2.55;;
55784;SDS011;41709;52.536;5.688;2023-02-28T08:07:39;3.95;;;2.65;;
55784;SDS011;41709;52.536;5.688;2023-02-28T08:10:05;4.15;;;2.88;;
55784;SDS011;41709;52.536;5.688;2023-02-28T08:12:31;3.83;;;2.53;;
55784;SDS011;41709;52.536;5.688;2023-02-28T08:14:56;3.63;;;2.85;;
55784;SDS011;41709;52.536;5.688;2023-02-28T08:17:22;5.25;;;3.05;;
55784;SDS011;41709;52.536;5.688;2023-02-28T08:19:47;5.03;;;2.83;;
55784;SDS011;41709;52.536;5.688;2023-02-28T08:22:13;6.22;;;3.63;;
55784;SDS011;41709;52.536;5.688;2023-02-28T08:24:39;7.00;;;2.88;;
55784;SDS011;41709;52.536;5.688;2023-02-28T08:27:06;4.32;;;3.20;;
55784;SDS011;41709;52.536;5.688;2023-02-28T08:29:32;5.07;;;2.85;;
55784;SDS011;41709;52.536;5.688;2023-02-28T08:31:57;6.03;;;3.45;;
55784;SDS011;41709;52.536;5.688;2023-02-28T08:34:23;6.00;;;2.92;;
55784;SDS011;41709;52.536;5.688;2023-02-28T08:36:49;4.60;;;2.70;;
55784;SDS011;41709;52.536;5.688;2023-02-28T08:39:14;4.53;;;2.72;;
55784;SDS011;41709;52.536;5.688;2023-02-28T08:41:41;2.90;;;2.60;;
55784;SDS011;41709;52.536;5.688;2023-02-28T08:44:07;4.95;;;2.60;;
55784;SDS011;41709;52.536;5.688;2023-02-28T08:46:32;5.72;;;3.28;;
55784;SDS011;41709;52.536;5.688;2023-02-28T08:48:58;7.85;;;3.15;;
55784;SDS011;41709;52.536;5.688;2023-02-28T08:51:26;4.60;;;3.42;;
55784;SDS011;41709;52.536;5.688;2023-02-28T08:53:53;5.65;;;3.45;;
55784;SDS011;41709;52.536;5.688;2023-02-28T08:56:26;4.50;;;3.13;;
55784;SDS011;41709;52.536;5.688;2023-02-28T08:58:54;5.32;;;3.95;;
55784;SDS011;41709;52.536;5.688;2023-02-28T09:01:22;6.63;;;4.47;;
55784;SDS011;41709;52.536;5.688;2023-02-28T09:03:50;7.53;;;3.60;;
55784;SDS011;41709;52.536;5.688;2023-02-28T09:06:16;6.05;;;3.70;;
55784;SDS011;41709;52.536;5.688;2023-02-28T09:08:43;9.05;;;4.43;;
55784;SDS011;41709;52.536;5.688;2023-02-28T09:11:09;5.50;;;3.10;;
55784;SDS011;41709;52.536;5.688;2023-02-28T09:13:35;6.47;;;3.25;;
55784;SDS011;41709;52.536;5.688;2023-02-28T09:16:02;5.15;;;3.20;;
55784;SDS011;41709;52.536;5.688;2023-02-28T09:18:28;6.13;;;3.20;;
55784;SDS011;41709;52.536;5.688;2023-02-28T09:20:54;5.82;;;3.63;;
55784;SDS011;41709;52.536;5.688;2023-02-28T09:23:20;4.22;;;3.05;;
55784;SDS011;41709;52.536;5.688;2023-02-28T09:25:53;4.22;;;2.80;;
55784;SDS011;41709;52.536;5.688;2023-02-28T09:28:19;4.30;;;2.70;;
55784;SDS011;41709;52.536;5.688;2023-02-28T09:30:49;5.60;;;2.63;;
55784;SDS011;41709;52.536;5.688;2023-02-28T09:33:16;4.57;;;2.85;;
55784;SDS011;41709;52.536;5.688;2023-02-28T09:35:45;3.33;;;2.17;;
55784;SDS011;41709;52.536;5.688;2023-02-28T09:38:11;4.80;;;2.45;;
55784;SDS011;41709;52.536;5.688;2023-02-28T09:40:39;5.70;;;2.38;;
55784;SDS011;41709;52.536;5.688;2023-02-28T09:43:14;4.60;;;2.30;;
55784;SDS011;41709;52.536;5.688;2023-02-28T09:45:42;6.03;;;2.53;;
55784;SDS011;41709;52.536;5.688;2023-02-28T09:48:18;4.70;;;2.00;;
55784;SDS011;41709;52.536;5.688;2023-02-28T09:50:49;7.18;;;2.20;;
55784;SDS011;41709;52.536;5.688;2023-02-28T09:56:21;4.28;;;1.98;;
55784;SDS011;41709;52.536;5.688;2023-02-28T10:04:16;3.92;;;2.35;;
55784;SDS011;41709;52.536;5.688;2023-02-28T10:07:17;3.92;;;2.63;;
55784;SDS011;41709;52.536;5.688;2023-02-28T10:09:47;4.70;;;2.28;;
55784;SDS011;41709;52.536;5.688;2023-02-28T10:14:42;3.13;;;1.95;;
55784;SDS011;41709;52.536;5.688;2023-02-28T10:17:11;4.07;;;2.30;;
55784;SDS011;41709;52.536;5.688;2023-02-28T10:22:41;2.55;;;1.98;;
55784;SDS011;41709;52.536;5.688;2023-02-28T10:25:21;3.78;;;2.33;;
55784;SDS011;41709;52.536;5.688;2023-02-28T10:27:49;3.28;;;2.15;;
55784;SDS011;41709;52.536;5.688;2023-02-28T10:30:18;4.15;;;2.10;;
55784;SDS011;41709;52.536;5.688;2023-02-28T10:32:47;3.30;;;2.13;;
55784;SDS011;41709;52.536;5.688;2023-02-28T10:35:18;4.00;;;1.90;;
55784;SDS011;41709;52.536;5.688;2023-02-28T10:37:49;3.38;;;2.00;;
55784;SDS011;41709;52.536;5.688;2023-02-28T10:42:54;3.42;;;2.08;;
55784;SDS011;41709;52.536;5.688;2023-02-28T10:45:28;4.65;;;2.08;;
55784;SDS011;41709;52.536;5.688;2023-02-28T10:48:03;2.92;;;1.80;;
55784;SDS011;41709;52.536;5.688;2023-02-28T10:50:37;2.97;;;2.13;;
55784;SDS011;41709;52.536;5.688;2023-02-28T10:58:46;2.97;;;1.67;;
55784;SDS011;41709;52.536;5.688;2023-02-28T11:01:33;2.75;;;1.40;;
55784;SDS011;41709;52.536;5.688;2023-02-28T11:04:00;4.78;;;2.63;;
55784;SDS011;41709;52.536;5.688;2023-02-28T11:06:26;3.88;;;1.55;;
55784;SDS011;41709;52.536;5.688;2023-02-28T11:09:03;7.53;;;1.80;;
55784;SDS011;41709;52.536;5.688;2023-02-28T11:11:41;2.95;;;1.52;;
55784;SDS011;41709;52.536;5.688;2023-02-28T11:14:16;1.75;;;1.30;;
55784;SDS011;41709;52.536;5.688;2023-02-28T11:16:51;2.33;;;1.65;;
55784;SDS011;41709;52.536;5.688;2023-02-28T11:20:02;1.42;;;1.30;;
55784;SDS011;41709;52.536;5.688;2023-02-28T11:22:11;1.88;;;1.30;;
55784;SDS011;41709;52.536;5.688;2023-02-28T11:24:44;1.55;;;1.27;;
55784;SDS011;41709;52.536;5.688;2023-02-28T11:27:24;2.40;;;1.20;;
55784;SDS011;41709;52.536;5.688;2023-02-28T11:29:49;1.77;;;0.88;;
55784;SDS011;41709;52.536;5.688;2023-02-28T11:32:19;3.10;;;1.55;;
55784;SDS011;41709;52.536;5.688;2023-02-28T11:34:47;1.38;;;1.13;;
55784;SDS011;41709;52.536;5.688;2023-02-28T11:37:27;1.15;;;1.08;;
55784;SDS011;41709;52.536;5.688;2023-02-28T11:39:53;4.35;;;1.17;;
55784;SDS011;41709;52.536;5.688;2023-02-28T11:47:52;2.40;;;1.23;;
55784;SDS011;41709;52.536;5.688;2023-02-28T11:50:40;1.40;;;0.90;;
55784;SDS011;41709;52.536;5.688;2023-02-28T12:07:26;1.20;;;0.90;;
55784;SDS011;41709;52.536;5.688;2023-02-28T12:20:54;2.30;;;1.20;;
55784;SDS011;41709;52.536;5.688;2023-02-28T12:26:42;4.00;;;1.02;;
55784;SDS011;41709;52.536;5.688;2023-02-28T12:32:03;2.45;;;1.08;;
55784;SDS011;41709;52.536;5.688;2023-02-28T12:37:02;1.90;;;1.13;;
55784;SDS011;41709;52.536;5.688;2023-02-28T12:39:34;2.05;;;1.30;;
55784;SDS011;41709;52.536;5.688;2023-02-28T12:42:03;2.72;;;1.27;;
55784;SDS011;41709;52.536;5.688;2023-02-28T12:44:40;3.22;;;1.17;;
55784;SDS011;41709;52.536;5.688;2023-02-28T12:47:13;3.95;;;1.08;;
55784;SDS011;41709;52.536;5.688;2023-02-28T12:49:42;3.25;;;1.10;;
55784;SDS011;41709;52.536;5.688;2023-02-28T12:52:14;1.88;;;1.25;;
55784;SDS011;41709;52.536;5.688;2023-02-28T13:00:25;2.60;;;1.15;;
55784;SDS011;41709;52.536;5.688;2023-02-28T13:09:03;1.92;;;1.05;;
55784;SDS011;41709;52.536;5.688;2023-02-28T13:16:55;2.85;;;1.20;;
55784;SDS011;41709;52.536;5.688;2023-02-28T13:19:35;1.83;;;1.10;;
55784;SDS011;41709;52.536;5.688;2023-02-28T13:25:49;2.08;;;1.25;;
55784;SDS011;41709;52.536;5.688;2023-02-28T13:27:57;2.53;;;1.10;;
55784;SDS011;41709;52.536;5.688;2023-02-28T13:36:22;2.58;;;1.30;;
55784;SDS011;41709;52.536;5.688;2023-02-28T13:38:57;1.73;;;1.30;;
55784;SDS011;41709;52.536;5.688;2023-02-28T13:46:28;1.45;;;1.10;;
55784;SDS011;41709;52.536;5.688;2023-02-28T13:48:54;1.92;;;0.93;;
55784;SDS011;41709;52.536;5.688;2023-02-28T13:51:39;3.60;;;1.20;;
55784;SDS011;41709;52.536;5.688;2023-02-28T13:59:33;2.05;;;1.30;;
55784;SDS011;41709;52.536;5.688;2023-02-28T14:02:59;1.17;;;1.08;;
55784;SDS011;41709;52.536;5.688;2023-02-28T14:05:17;2.72;;;1.35;;
55784;SDS011;41709;52.536;5.688;2023-02-28T14:07:50;1.73;;;1.17;;
55784;SDS011;41709;52.536;5.688;2023-02-28T14:10:22;1.63;;;0.95;;
55784;SDS011;41709;52.536;5.688;2023-02-28T14:18:49;2.72;;;1.17;;
55784;SDS011;41709;52.536;5.688;2023-02-28T14:34:35;2.92;;;1.17;;
55784;SDS011;41709;52.536;5.688;2023-02-28T14:37:15;2.95;;;1.15;;
55784;SDS011;41709;52.536;5.688;2023-02-28T14:39:55;2.17;;;1.08;;
55784;SDS011;41709;52.536;5.688;2023-02-28T14:42:39;1.95;;;1.15;;
55784;SDS011;41709;52.536;5.688;2023-02-28T14:45:20;1.83;;;0.98;;
55784;SDS011;41709;52.536;5.688;2023-02-28T14:47:46;2.30;;;1.27;;
55784;SDS011;41709;52.536;5.688;2023-02-28T14:50:17;1.20;;;1.10;;
55784;SDS011;41709;52.536;5.688;2023-02-28T14:52:55;1.77;;;1.08;;
55784;SDS011;41709;52.536;5.688;2023-02-28T14:55:31;4.32;;;1.02;;
55784;SDS011;41709;52.536;5.688;2023-02-28T14:58:00;1.92;;;1.00;;
55784;SDS011;41709;52.536;5.688;2023-02-28T15:00:29;1.88;;;1.20;;
55784;SDS011;41709;52.536;5.688;2023-02-28T15:02:57;4.18;;;1.30;;
55784;SDS011;41709;52.536;5.688;2023-02-28T15:05:30;1.50;;;1.20;;
55784;SDS011;41709;52.536;5.688;2023-02-28T15:08:05;2.05;;;1.27;;
55784;SDS011;41709;52.536;5.688;2023-02-28T15:10:35;2.67;;;1.05;;
55784;SDS011;41709;52.536;5.688;2023-02-28T15:13:05;2.05;;;1.20;;
55784;SDS011;41709;52.536;5.688;2023-02-28T15:15:35;2.42;;;1.10;;
55784;SDS011;41709;52.536;5.688;2023-02-28T15:18:21;1.73;;;1.20;;
55784;SDS011;41709;52.536;5.688;2023-02-28T15:21:07;2.70;;;1.15;;
55784;SDS011;41709;52.536;5.688;2023-02-28T15:23:40;2.85;;;1.30;;
55784;SDS011;41709;52.536;5.688;2023-02-28T15:26:12;2.13;;;1.33;;
55784;SDS011;41709;52.536;5.688;2023-02-28T15:28:41;1.50;;;1.10;;
55784;SDS011;41709;52.536;5.688;2023-02-28T15:31:21;3.10;;;1.40;;
55784;SDS011;41709;52.536;5.688;2023-02-28T15:34:02;3.78;;;1.13;;
55784;SDS011;41709;52.536;5.688;2023-02-28T15:36:30;2.92;;;1.70;;
55784;SDS011;41709;52.536;5.688;2023-02-28T15:38:58;2.17;;;1.30;;
55784;SDS011;41709;52.536;5.688;2023-02-28T15:41:36;2.60;;;1.63;;
55784;SDS011;41709;52.536;5.688;2023-02-28T15:44:15;2.58;;;1.20;;
55784;SDS011;41709;52.536;5.688;2023-02-28T15:47:06;2.00;;;1.23;;
55784;SDS011;41709;52.536;5.688;2023-02-28T15:49:45;1.80;;;1.30;;
55784;SDS011;41709;52.536;5.688;2023-02-28T15:52:15;1.92;;;1.30;;
55784;SDS011;41709;52.536;5.688;2023-02-28T15:54:51;2.83;;;1.38;;
55784;SDS011;41709;52.536;5.688;2023-02-28T15:57:27;2.17;;;1.52;;
55784;SDS011;41709;52.536;5.688;2023-02-28T15:59:58;2.85;;;1.30;;
55784;SDS011;41709;52.536;5.688;2023-02-28T16:02:30;2.72;;;1.42;;
55784;SDS011;41709;52.536;5.688;2023-02-28T16:07:41;3.63;;;1.45;;
55784;SDS011;41709;52.536;5.688;2023-02-28T16:10:10;5.25;;;1.75;;
55784;SDS011;41709;52.536;5.688;2023-02-28T16:12:37;2.67;;;1.83;;
55784;SDS011;41709;52.536;5.688;2023-02-28T16:15:08;2.53;;;1.45;;
55784;SDS011;41709;52.536;5.688;2023-02-28T16:17:47;3.17;;;1.88;;
55784;SDS011;41709;52.536;5.688;2023-02-28T16:22:39;2.25;;;1.50;;
55784;SDS011;41709;52.536;5.688;2023-02-28T16:25:07;4.68;;;1.75;;
55784;SDS011;41709;52.536;5.688;2023-02-28T16:27:36;3.38;;;1.80;;
55784;SDS011;41709;52.536;5.688;2023-02-28T16:30:06;3.15;;;1.70;;
55784;SDS011;41709;52.536;5.688;2023-02-28T16:32:38;2.42;;;1.55;;
55784;SDS011;41709;52.536;5.688;2023-02-28T16:35:05;2.92;;;1.63;;
55784;SDS011;41709;52.536;5.688;2023-02-28T16:37:34;4.28;;;1.75;;
55784;SDS011;41709;52.536;5.688;2023-02-28T16:40:00;4.25;;;1.50;;
55784;SDS011;41709;52.536;5.688;2023-02-28T16:42:26;2.13;;;1.58;;
55784;SDS011;41709;52.536;5.688;2023-02-28T16:44:53;2.20;;;1.80;;
55784;SDS011;41709;52.536;5.688;2023-02-28T16:47:20;3.33;;;1.63;;
55784;SDS011;41709;52.536;5.688;2023-02-28T16:49:46;2.90;;;1.70;;
55784;SDS011;41709;52.536;5.688;2023-02-28T16:52:12;4.28;;;1.73;;
55784;SDS011;41709;52.536;5.688;2023-02-28T16:54:39;4.03;;;1.48;;
55784;SDS011;41709;52.536;5.688;2023-02-28T16:57:06;4.63;;;1.67;;
55784;SDS011;41709;52.536;5.688;2023-02-28T16:59:41;4.03;;;1.60;;
55784;SDS011;41709;52.536;5.688;2023-02-28T17:02:10;3.47;;;1.52;;
55784;SDS011;41709;52.536;5.688;2023-02-28T17:04:39;3.75;;;1.67;;
55784;SDS011;41709;52.536;5.688;2023-02-28T17:07:04;4.43;;;2.22;;
55784;SDS011;41709;52.536;5.688;2023-02-28T17:09:30;2.88;;;1.85;;
55784;SDS011;41709;52.536;5.688;2023-02-28T17:11:55;4.03;;;1.90;;
55784;SDS011;41709;52.536;5.688;2023-02-28T17:14:21;3.58;;;1.90;;
55784;SDS011;41709;52.536;5.688;2023-02-28T17:16:48;2.80;;;1.90;;
55784;SDS011;41709;52.536;5.688;2023-02-28T17:19:14;3.15;;;2.13;;
55784;SDS011;41709;52.536;5.688;2023-02-28T17:21:41;5.28;;;1.88;;
55784;SDS011;41709;52.536;5.688;2023-02-28T17:24:08;3.25;;;2.25;;
55784;SDS011;41709;52.536;5.688;2023-02-28T17:26:37;3.38;;;2.00;;
55784;SDS011;41709;52.536;5.688;2023-02-28T17:29:05;4.50;;;2.25;;